createdAt,value
2022-12-14T00:00:20.244Z,-3.13
2022-12-14T00:03:07.841Z,-3.10
2022-12-14T00:05:54.843Z,-3.13
2022-12-14T00:08:53.039Z,-3.12
2022-12-14T00:11:42.981Z,-3.16
2022-12-14T00:14:30.053Z,-3.17
2022-12-14T00:17:16.940Z,-3.13
2022-12-14T00:20:04.280Z,-3.13
2022-12-14T00:22:55.279Z,-3.13
2022-12-14T00:25:42.309Z,-3.16
2022-12-14T00:28:31.863Z,-3.16
2022-12-14T00:31:19.444Z,-3.15
2022-12-14T00:34:06.531Z,-3.16
2022-12-14T00:36:56.159Z,-3.15
2022-12-14T00:39:42.916Z,-3.16
2022-12-14T00:42:31.911Z,-3.17
2022-12-14T00:45:19.730Z,-3.13
2022-12-14T00:48:06.723Z,-3.13
2022-12-14T00:50:55.113Z,-3.19
2022-12-14T00:53:43.735Z,-3.12
2022-12-14T00:56:30.574Z,-3.16
2022-12-14T00:59:26.963Z,-3.15
2022-12-14T01:02:14.508Z,-3.14
2022-12-14T01:05:01.555Z,-3.19
2022-12-14T01:08:01.087Z,-3.18
2022-12-14T01:10:48.034Z,-3.19
2022-12-14T01:13:35.174Z,-3.20
2022-12-14T01:16:22.052Z,-3.15
2022-12-14T01:19:08.931Z,-3.21
2022-12-14T01:21:55.748Z,-3.17
2022-12-14T01:24:44.483Z,-3.17
2022-12-14T01:27:34.521Z,-3.17
2022-12-14T01:30:23.936Z,-3.20
2022-12-14T01:33:13.786Z,-3.17
2022-12-14T01:36:08.093Z,-3.22
2022-12-14T01:38:57.022Z,-3.19
2022-12-14T01:41:47.274Z,-3.19
2022-12-14T01:44:36.811Z,-3.19
2022-12-14T01:47:43.919Z,-3.23
2022-12-14T01:50:45.264Z,-3.20
2022-12-14T01:53:32.230Z,-3.20
2022-12-14T01:56:20.544Z,-3.23
2022-12-14T01:59:14.971Z,-3.19
2022-12-14T02:02:07.740Z,-3.21
2022-12-14T02:04:58.028Z,-3.20
2022-12-14T02:07:58.898Z,-3.22
2022-12-14T02:10:46.432Z,-3.23
2022-12-14T02:13:35.523Z,-3.19
2022-12-14T02:16:22.500Z,-3.22
2022-12-14T02:19:09.782Z,-3.22
2022-12-14T02:22:24.787Z,-3.20
2022-12-14T02:25:22.271Z,-3.20
2022-12-14T02:28:27.872Z,-3.22
2022-12-14T02:31:24.984Z,-3.27
2022-12-14T02:34:30.881Z,-3.22
2022-12-14T02:37:24.326Z,-3.23
2022-12-14T02:40:19.591Z,-3.26
2022-12-14T02:43:24.463Z,-3.25
2022-12-14T02:46:33.299Z,-3.22
2022-12-14T02:49:20.123Z,-3.23
2022-12-14T02:52:08.583Z,-3.24
2022-12-14T02:54:59.628Z,-3.23
2022-12-14T02:58:00.882Z,-3.25
2022-12-14T03:00:50.495Z,-3.22
2022-12-14T03:03:40.405Z,-3.22
2022-12-14T03:06:27.476Z,-3.23
2022-12-14T03:09:17.391Z,-3.23
2022-12-14T03:12:10.890Z,-3.19
2022-12-14T03:15:01.295Z,-3.18
2022-12-14T03:17:52.000Z,-3.17
2022-12-14T03:20:42.551Z,-3.19
2022-12-14T03:23:35.219Z,-3.18
2022-12-14T03:26:26.344Z,-3.22
2022-12-14T03:29:23.456Z,-3.23
2022-12-14T03:32:12.638Z,-3.22
2022-12-14T03:35:17.007Z,-3.19
2022-12-14T03:38:06.938Z,-3.20
2022-12-14T03:41:17.116Z,-3.19
2022-12-14T03:44:50.013Z,-3.23
2022-12-14T03:47:58.732Z,-3.18
2022-12-14T03:51:07.606Z,-3.21
2022-12-14T03:54:12.858Z,-3.19
2022-12-14T03:57:05.767Z,-3.21
2022-12-14T04:00:06.943Z,-3.25
2022-12-14T04:03:01.493Z,-3.22
2022-12-14T04:06:20.719Z,-3.24
2022-12-14T04:09:09.883Z,-3.21
2022-12-14T04:12:21.754Z,-3.23
2022-12-14T04:15:33.161Z,-3.25
2022-12-14T04:18:45.206Z,-3.23
2022-12-14T04:21:39.193Z,-3.25
2022-12-14T04:25:17.908Z,-3.22
2022-12-14T04:28:32.280Z,-3.19
2022-12-14T04:31:30.920Z,-3.22
2022-12-14T04:34:21.350Z,-3.26
2022-12-14T04:37:11.014Z,-3.25
2022-12-14T04:40:21.162Z,-3.23
2022-12-14T04:43:18.571Z,-3.22
2022-12-14T04:46:08.838Z,-3.20
2022-12-14T04:49:01.383Z,-3.19
2022-12-14T04:52:27.677Z,-3.19
2022-12-14T04:55:29.642Z,-3.18
2022-12-14T04:58:21.866Z,-3.19
2022-12-14T05:01:35.655Z,-3.18
2022-12-14T05:04:25.629Z,-3.16
2022-12-14T05:07:21.060Z,-3.16
2022-12-14T05:10:20.439Z,-3.22
2022-12-14T05:13:15.366Z,-3.19
2022-12-14T05:16:02.669Z,-3.18
2022-12-14T05:18:49.999Z,-3.19
2022-12-14T05:21:48.972Z,-3.21
2022-12-14T05:24:39.112Z,-3.17
2022-12-14T05:27:28.830Z,-3.17
2022-12-14T05:30:21.005Z,-3.21
2022-12-14T05:33:16.522Z,-3.19
2022-12-14T05:36:03.457Z,-3.18
2022-12-14T05:38:51.693Z,-3.18
2022-12-14T05:41:41.691Z,-3.14
2022-12-14T05:44:28.518Z,-3.18
2022-12-14T05:47:15.569Z,-3.17
2022-12-14T05:50:02.536Z,-3.18
2022-12-14T05:52:51.864Z,-3.18
2022-12-14T05:55:38.894Z,-3.12
2022-12-14T05:58:29.149Z,-3.19
2022-12-14T06:01:19.350Z,-3.16
2022-12-14T06:04:06.800Z,-3.12
2022-12-14T06:06:53.632Z,-3.11
2022-12-14T06:09:40.438Z,-3.12
2022-12-14T06:12:27.276Z,-3.12
2022-12-14T06:15:14.163Z,-3.13
2022-12-14T06:18:01.019Z,-3.13
2022-12-14T06:20:47.990Z,-3.18
2022-12-14T06:23:40.517Z,-3.11
2022-12-14T06:26:28.533Z,-3.13
2022-12-14T06:29:20.607Z,-3.10
2022-12-14T06:32:07.463Z,-3.14
2022-12-14T06:35:00.202Z,-3.13
2022-12-14T06:37:48.890Z,-3.09
2022-12-14T06:40:35.856Z,-3.08
2022-12-14T06:43:25.704Z,-3.07
2022-12-14T06:46:16.092Z,-3.06
2022-12-14T06:49:04.892Z,-3.07
2022-12-14T06:51:51.670Z,-3.06
2022-12-14T06:54:38.443Z,-3.08
2022-12-14T06:57:28.209Z,-3.06
2022-12-14T07:00:15.127Z,-3.05
2022-12-14T07:03:02.038Z,-3.07
2022-12-14T07:05:51.467Z,-3.09
2022-12-14T07:08:38.626Z,-3.05
2022-12-14T07:11:27.048Z,-3.06
2022-12-14T07:14:17.309Z,-3.07
2022-12-14T07:17:04.090Z,-3.06
2022-12-14T07:19:53.244Z,-3.08
2022-12-14T07:22:40.969Z,-3.07
2022-12-14T07:25:27.861Z,-3.08
2022-12-14T07:28:15.219Z,-3.07
2022-12-14T07:31:02.998Z,-3.05
2022-12-14T07:33:52.847Z,-3.04
2022-12-14T07:36:40.045Z,-3.04
2022-12-14T07:39:27.036Z,-3.04
2022-12-14T07:42:13.977Z,-3.05
2022-12-14T07:45:01.281Z,-3.05
2022-12-14T07:47:48.362Z,-3.02
2022-12-14T07:50:39.828Z,-3.00
2022-12-14T07:53:27.111Z,-2.99
2022-12-14T07:56:22.890Z,-3.00
2022-12-14T07:59:19.388Z,-2.97
2022-12-14T08:02:06.384Z,-2.97
2022-12-14T08:04:56.666Z,-2.98
2022-12-14T08:07:43.948Z,-2.98
2022-12-14T08:10:34.392Z,-2.96
2022-12-14T08:13:24.155Z,-2.93
2022-12-14T08:16:15.107Z,-2.94
2022-12-14T08:19:04.470Z,-2.93
2022-12-14T08:21:51.943Z,-2.91
2022-12-14T08:24:41.611Z,-2.94
2022-12-14T08:27:31.351Z,-2.87
2022-12-14T08:30:18.486Z,-2.88
2022-12-14T08:33:05.762Z,-2.91
2022-12-14T08:35:52.709Z,-2.93
2022-12-14T08:38:43.025Z,-2.91
2022-12-14T08:41:30.482Z,-2.93
2022-12-14T08:44:18.314Z,-2.96
2022-12-14T08:47:06.089Z,-2.93
2022-12-14T08:49:54.515Z,-2.95
2022-12-14T08:52:41.561Z,-2.95
2022-12-14T08:55:35.195Z,-2.95
2022-12-14T08:58:26.356Z,-2.92
2022-12-14T09:01:28.338Z,-2.92
2022-12-14T09:04:19.073Z,-2.92
2022-12-14T09:07:09.199Z,-2.92
2022-12-14T09:09:56.750Z,-2.91
2022-12-14T09:12:43.829Z,-2.91
2022-12-14T09:15:30.980Z,-2.89
2022-12-14T09:18:17.917Z,-2.87
2022-12-14T09:21:06.306Z,-2.87
2022-12-14T09:23:58.947Z,-2.85
2022-12-14T09:26:47.360Z,-2.81
2022-12-14T09:29:34.650Z,-2.80
2022-12-14T09:32:24.802Z,-2.80
2022-12-14T09:35:12.086Z,-2.81
2022-12-14T09:38:01.764Z,-2.77
2022-12-14T09:40:56.242Z,-2.77
2022-12-14T09:43:51.148Z,-2.77
2022-12-14T09:46:45.441Z,-2.75
2022-12-14T09:49:45.885Z,-2.76
2022-12-14T09:52:42.509Z,-2.72
2022-12-14T09:55:32.816Z,-2.73
2022-12-14T09:58:26.893Z,-2.72
2022-12-14T10:01:23.356Z,-2.70
2022-12-14T10:04:39.549Z,-2.70
2022-12-14T10:07:34.174Z,-2.67
2022-12-14T10:10:31.914Z,-2.67
2022-12-14T10:13:46.981Z,-2.66
2022-12-14T10:16:51.990Z,-2.64
2022-12-14T10:19:59.587Z,-2.64
2022-12-14T10:30:53.686Z,-2.61
2022-12-14T10:45:42.169Z,-2.52
2022-12-14T10:49:28.559Z,-2.59
2022-12-14T10:53:08.617Z,-2.57
2022-12-14T10:56:29.781Z,-2.56
2022-12-14T11:00:34.195Z,-2.48
2022-12-14T11:15:25.124Z,-2.49
2022-12-14T11:22:33.024Z,-2.48
2022-12-14T11:32:57.598Z,-2.46
2022-12-14T11:36:47.000Z,-2.38
2022-12-14T11:39:40.273Z,-2.35
2022-12-14T11:46:52.120Z,-2.37
2022-12-14T11:49:53.480Z,-2.32
2022-12-14T11:53:00.605Z,-2.35
2022-12-14T11:56:17.116Z,-2.30
2022-12-14T12:00:15.814Z,-2.36
2022-12-14T12:03:48.587Z,-2.28
2022-12-14T12:06:49.865Z,-2.24
2022-12-14T12:09:53.484Z,-2.23
2022-12-14T12:13:10.289Z,-2.11
2022-12-14T12:19:37.026Z,-1.95
2022-12-14T12:22:28.492Z,-1.94
2022-12-14T12:25:29.587Z,-1.87
2022-12-14T12:28:27.652Z,-1.79
2022-12-14T12:31:39.567Z,-1.74
2022-12-14T12:34:40.289Z,-1.71
2022-12-14T12:37:53.679Z,-1.64
2022-12-14T12:40:59.091Z,-1.61
2022-12-14T12:44:17.404Z,-1.65
2022-12-14T12:47:48.336Z,-1.54
2022-12-14T12:50:57.132Z,-1.56
2022-12-14T12:57:24.102Z,-1.51
2022-12-14T13:00:27.869Z,-1.45
2022-12-14T13:03:46.393Z,-1.45
2022-12-14T13:07:01.063Z,-1.40
2022-12-14T13:13:48.208Z,-1.39
2022-12-14T13:17:04.954Z,-1.31
2022-12-14T13:20:04.291Z,-1.35
2022-12-14T13:26:59.386Z,-1.29
2022-12-14T13:30:34.062Z,-1.24
2022-12-14T13:34:42.186Z,-1.27
2022-12-14T13:38:27.656Z,-1.23
2022-12-14T13:41:32.259Z,-1.25
2022-12-14T13:45:01.572Z,-1.19
2022-12-14T13:47:57.391Z,-1.16
2022-12-14T13:51:02.221Z,-1.17
2022-12-14T13:54:09.709Z,-1.19
2022-12-14T13:57:33.162Z,-1.15
2022-12-14T14:00:55.029Z,-1.13
2022-12-14T14:04:02.304Z,-1.16
2022-12-14T14:07:01.725Z,-1.16
2022-12-14T14:10:01.570Z,-1.08
2022-12-14T14:16:28.731Z,-1.11
2022-12-14T14:19:43.063Z,-1.13
2022-12-14T14:22:42.940Z,-1.12
2022-12-14T14:26:20.520Z,-1.05
2022-12-14T14:29:29.517Z,-1.04
2022-12-14T14:33:43.855Z,-1.04
2022-12-14T14:36:25.475Z,-1.03
2022-12-14T14:40:02.339Z,-1.03
2022-12-14T14:46:56.958Z,-1.07
2022-12-14T14:50:05.043Z,-1.09
2022-12-14T14:53:23.083Z,-1.02
2022-12-14T14:56:42.982Z,-0.99
2022-12-14T14:59:50.816Z,-1.03
2022-12-14T15:02:51.769Z,-0.96
2022-12-14T15:05:52.651Z,-1.04
2022-12-14T15:08:47.489Z,-0.98
2022-12-14T15:12:20.739Z,-0.94
2022-12-14T15:15:52.113Z,-0.93
2022-12-14T15:18:52.337Z,-0.93
2022-12-14T15:22:02.249Z,-0.98
2022-12-14T15:25:33.266Z,-0.92
2022-12-14T15:32:16.630Z,-0.94
2022-12-14T15:35:20.210Z,-0.95
2022-12-14T15:38:26.766Z,-0.90
2022-12-14T15:41:44.424Z,-0.90
2022-12-14T15:44:49.017Z,-0.89
2022-12-14T15:48:09.182Z,-0.95
2022-12-14T15:51:12.030Z,-0.91
2022-12-14T15:53:59.810Z,-0.91
2022-12-14T15:57:02.725Z,-0.87
2022-12-14T15:59:52.176Z,-0.89
2022-12-14T16:02:47.278Z,-0.83
2022-12-14T16:05:36.028Z,-0.89
2022-12-14T16:08:23.366Z,-0.85
2022-12-14T16:11:30.463Z,-0.89
2022-12-14T16:14:25.680Z,-0.83
2022-12-14T16:17:14.285Z,-0.90
2022-12-14T16:20:17.990Z,-0.90
2022-12-14T16:23:14.272Z,-0.84
2022-12-14T16:26:21.996Z,-0.90
2022-12-14T16:29:26.539Z,-0.87
2022-12-14T16:32:24.452Z,-0.88
2022-12-14T16:35:25.274Z,-0.90
2022-12-14T16:38:16.105Z,-0.90
2022-12-14T16:41:06.283Z,-0.85
2022-12-14T16:43:58.396Z,-0.85
2022-12-14T16:47:02.769Z,-0.89
2022-12-14T16:49:50.142Z,-0.81
2022-12-14T16:52:37.186Z,-0.87
2022-12-14T16:55:26.391Z,-0.85
2022-12-14T16:58:16.363Z,-0.83
2022-12-14T17:01:06.880Z,-0.87
2022-12-14T17:04:04.179Z,-0.85
2022-12-14T17:06:55.708Z,-0.88
2022-12-14T17:09:42.618Z,-0.86
2022-12-14T17:12:29.600Z,-0.87
2022-12-14T17:15:20.368Z,-0.82
2022-12-14T17:18:08.486Z,-0.85
2022-12-14T17:21:16.916Z,-0.86
2022-12-14T17:45:23.541Z,-0.89
2022-12-14T17:48:37.496Z,-0.94
2022-12-14T17:51:42.095Z,-0.98
2022-12-14T17:54:54.663Z,-0.96
2022-12-14T17:58:28.208Z,-0.96
2022-12-14T18:10:09.992Z,-0.89
2022-12-14T18:13:04.528Z,-0.87
2022-12-14T18:16:28.097Z,-0.89
2022-12-14T18:19:16.386Z,-0.84
2022-12-14T18:22:13.085Z,-0.83
2022-12-14T18:25:06.593Z,-0.87
2022-12-14T18:27:53.533Z,-0.87
2022-12-14T18:30:49.197Z,-0.87
2022-12-14T18:33:36.990Z,-0.84
2022-12-14T18:36:34.004Z,-0.90
2022-12-14T18:39:23.344Z,-0.78
2022-12-14T18:42:10.877Z,-0.78
2022-12-14T18:45:00.587Z,-0.83
2022-12-14T18:47:56.149Z,-0.78
2022-12-14T18:50:43.654Z,-0.82
2022-12-14T18:53:37.146Z,-0.77
2022-12-14T18:56:25.381Z,-0.77
2022-12-14T18:59:15.364Z,-0.74
2022-12-14T19:02:25.344Z,-0.77
2022-12-14T19:05:17.337Z,-0.79
2022-12-14T19:08:08.837Z,-0.80
2022-12-14T19:11:01.961Z,-0.80
2022-12-14T19:14:03.290Z,-0.78
2022-12-14T19:16:52.824Z,-0.74
2022-12-14T19:19:44.403Z,-0.76
2022-12-14T19:23:00.681Z,-0.79
2022-12-14T19:26:05.779Z,-0.72
2022-12-14T19:32:24.892Z,-0.76
2022-12-14T19:35:15.143Z,-0.75
2022-12-14T19:41:59.933Z,-0.76
2022-12-14T19:47:55.437Z,-0.78
2022-12-14T19:51:18.732Z,-0.74
2022-12-14T19:54:40.967Z,-0.78
2022-12-14T19:57:32.450Z,-0.78
2022-12-14T20:00:27.512Z,-0.80
2022-12-14T20:03:25.023Z,-0.78
2022-12-14T20:10:28.446Z,-0.74
2022-12-14T20:16:29.124Z,-0.77
2022-12-14T20:16:31.196Z,-0.77
2022-12-14T20:19:44.199Z,-0.78
2022-12-14T20:22:57.881Z,-0.75
2022-12-14T20:26:04.014Z,-0.71
2022-12-14T20:29:06.374Z,-0.80
2022-12-14T20:32:11.613Z,-0.78
2022-12-14T20:35:20.959Z,-0.79
2022-12-14T20:38:10.867Z,-0.72
2022-12-14T20:41:12.593Z,-0.78
2022-12-14T20:44:08.051Z,-0.77
2022-12-14T20:46:55.381Z,-0.76
2022-12-14T20:49:53.420Z,-0.81
2022-12-14T20:52:45.876Z,-0.77
2022-12-14T20:55:45.115Z,-0.73
2022-12-14T20:58:42.295Z,-0.80
2022-12-14T21:01:32.224Z,-0.76
2022-12-14T21:04:19.249Z,-0.72
2022-12-14T21:07:22.905Z,-0.77
2022-12-14T21:10:15.586Z,-0.74
2022-12-14T21:13:08.548Z,-0.77
2022-12-14T21:16:05.223Z,-0.76
2022-12-14T21:18:56.593Z,-0.75
2022-12-14T21:21:53.496Z,-0.72
2022-12-14T21:25:02.222Z,-0.73
2022-12-14T21:27:57.115Z,-0.78
2022-12-14T21:30:47.339Z,-0.74
2022-12-14T21:34:14.903Z,-0.77
2022-12-14T21:37:38.943Z,-0.74
2022-12-14T21:40:45.708Z,-0.82
2022-12-14T21:43:38.691Z,-0.74
2022-12-14T21:46:34.259Z,-0.76
2022-12-14T21:49:41.787Z,-0.81
2022-12-14T21:52:32.719Z,-0.75
2022-12-14T21:55:21.954Z,-0.74
2022-12-14T21:58:20.995Z,-0.74
2022-12-14T22:01:19.894Z,-0.80
2022-12-14T22:04:09.996Z,-0.75
2022-12-14T22:06:58.124Z,-0.73
2022-12-14T22:09:51.039Z,-0.80
2022-12-14T22:12:43.862Z,-0.79
2022-12-14T22:15:42.944Z,-0.78
2022-12-14T22:18:42.738Z,-0.78
2022-12-14T22:21:29.767Z,-0.77
2022-12-14T22:24:17.443Z,-0.79
2022-12-14T22:27:17.551Z,-0.77
2022-12-14T22:30:05.498Z,-0.78
2022-12-14T22:32:58.951Z,-0.75
2022-12-14T22:35:47.211Z,-0.75
2022-12-14T22:38:34.238Z,-0.72
2022-12-14T22:41:21.132Z,-0.75
2022-12-14T22:44:08.438Z,-0.75
2022-12-14T22:47:09.543Z,-0.76
2022-12-14T22:49:56.557Z,-0.74
2022-12-14T22:52:43.550Z,-0.75
2022-12-14T22:55:37.814Z,-0.74
2022-12-14T22:58:26.688Z,-0.71
2022-12-14T23:01:16.014Z,-0.73
2022-12-14T23:04:03.252Z,-0.72
2022-12-14T23:06:53.138Z,-0.81
2022-12-14T23:10:08.799Z,-0.81
2022-12-14T23:13:14.282Z,-0.78
2022-12-14T23:16:20.012Z,-0.82
2022-12-14T23:19:29.951Z,-0.79
2022-12-14T23:22:40.506Z,-0.84
2022-12-14T23:25:45.919Z,-0.83
2022-12-14T23:28:51.645Z,-0.83
2022-12-14T23:31:58.462Z,-0.80
2022-12-14T23:35:03.910Z,-0.84
2022-12-14T23:38:15.024Z,-0.81
2022-12-14T23:41:22.532Z,-0.81
2022-12-14T23:44:28.155Z,-0.85
2022-12-14T23:47:33.552Z,-0.81
2022-12-14T23:50:39.582Z,-0.86
2022-12-14T23:53:50.025Z,-0.82
2022-12-14T23:56:56.071Z,-0.82
